createdAt,value
2022-11-29T00:00:06.835Z,17.77
2022-11-29T00:00:58.513Z,17.92
2022-11-29T00:01:50.099Z,18.48
2022-11-29T00:02:41.753Z,18.10
2022-11-29T00:03:34.398Z,17.58
2022-11-29T00:04:25.921Z,17.48
2022-11-29T00:05:17.436Z,18.70
2022-11-29T00:06:20.690Z,17.92
2022-11-29T00:07:12.214Z,18.35
2022-11-29T00:08:03.716Z,17.80
2022-11-29T00:08:56.988Z,17.65
2022-11-29T00:09:48.461Z,17.73
2022-11-29T00:10:39.943Z,17.67
2022-11-29T00:11:53.018Z,18.80
2022-11-29T00:12:47.300Z,16.80
2022-11-29T00:13:39.573Z,16.17
2022-11-29T00:14:31.071Z,17.25
2022-11-29T00:15:22.547Z,16.45
2022-11-29T00:16:15.706Z,17.38
2022-11-29T00:17:07.598Z,16.90
2022-11-29T00:17:59.090Z,17.23
2022-11-29T00:18:50.619Z,16.95
2022-11-29T00:19:42.163Z,17.30
2022-11-29T00:20:34.744Z,17.77
2022-11-29T00:21:26.395Z,18.00
2022-11-29T00:22:17.873Z,17.27
2022-11-29T00:23:09.351Z,17.20
2022-11-29T00:24:00.862Z,16.52
2022-11-29T00:24:52.405Z,17.33
2022-11-29T00:25:43.976Z,18.08
2022-11-29T00:26:36.964Z,17.90
2022-11-29T00:27:28.457Z,16.63
2022-11-29T00:28:19.997Z,16.90
2022-11-29T00:29:12.963Z,17.15
2022-11-29T00:30:05.193Z,16.88
2022-11-29T00:30:56.821Z,16.95
2022-11-29T00:31:48.442Z,16.88
2022-11-29T00:32:39.934Z,17.60
2022-11-29T00:33:31.427Z,16.67
2022-11-29T00:34:22.969Z,17.55
2022-11-29T00:35:14.523Z,18.25
2022-11-29T00:36:06.350Z,16.77
2022-11-29T00:36:57.909Z,18.40
2022-11-29T00:37:49.383Z,17.83
2022-11-29T00:38:41.758Z,17.92
2022-11-29T00:39:33.233Z,17.58
2022-11-29T00:40:24.876Z,17.30
2022-11-29T00:41:16.483Z,17.63
2022-11-29T00:42:08.039Z,17.80
2022-11-29T00:42:59.522Z,17.52
2022-11-29T00:43:51.165Z,16.85
2022-11-29T00:44:42.966Z,17.70
2022-11-29T00:45:34.662Z,18.02
2022-11-29T00:46:26.286Z,17.45
2022-11-29T00:47:17.849Z,17.55
2022-11-29T00:48:09.343Z,17.98
2022-11-29T00:49:00.829Z,18.35
2022-11-29T00:49:52.363Z,18.45
2022-11-29T00:50:43.908Z,17.80
2022-11-29T00:51:35.390Z,19.15
2022-11-29T00:52:26.922Z,18.58
2022-11-29T00:53:18.455Z,18.67
2022-11-29T00:54:09.938Z,18.77
2022-11-29T00:55:01.522Z,18.13
2022-11-29T00:55:53.769Z,18.45
2022-11-29T00:56:45.419Z,19.23
2022-11-29T00:57:36.929Z,18.98
2022-11-29T00:58:29.030Z,18.15
2022-11-29T00:59:20.550Z,19.17
2022-11-29T01:00:12.636Z,18.90
2022-11-29T01:01:05.288Z,17.70
2022-11-29T01:01:56.976Z,17.88
2022-11-29T01:02:48.589Z,18.10
2022-11-29T01:03:40.362Z,17.90
2022-11-29T01:04:31.862Z,17.25
2022-11-29T01:05:23.678Z,18.42
2022-11-29T01:06:17.430Z,18.45
2022-11-29T01:07:08.940Z,17.80
2022-11-29T01:08:00.432Z,18.70
2022-11-29T01:08:52.000Z,18.60
2022-11-29T01:09:43.486Z,19.40
2022-11-29T01:10:35.021Z,17.42
2022-11-29T01:11:27.626Z,17.65
2022-11-29T01:12:19.142Z,17.10
2022-11-29T01:13:11.362Z,16.80
2022-11-29T01:14:03.642Z,17.92
2022-11-29T01:14:55.147Z,18.17
2022-11-29T01:15:54.735Z,17.88
2022-11-29T01:16:46.270Z,17.45
2022-11-29T01:17:39.620Z,17.83
2022-11-29T01:18:32.001Z,18.27
2022-11-29T01:19:23.486Z,18.80
2022-11-29T01:20:16.100Z,18.10
2022-11-29T01:21:14.277Z,18.92
2022-11-29T01:22:05.746Z,18.48
2022-11-29T01:22:57.247Z,18.63
2022-11-29T01:23:49.970Z,18.60
2022-11-29T01:24:41.596Z,17.85
2022-11-29T01:25:33.186Z,18.27
2022-11-29T01:26:27.811Z,17.50
2022-11-29T01:27:19.300Z,17.80
2022-11-29T01:28:10.782Z,19.55
2022-11-29T01:29:02.330Z,18.48
2022-11-29T01:29:53.890Z,18.95
2022-11-29T01:30:46.565Z,19.52
2022-11-29T01:31:38.137Z,17.80
2022-11-29T01:32:29.680Z,18.73
2022-11-29T01:33:21.745Z,19.20
2022-11-29T01:34:13.822Z,18.75
2022-11-29T01:35:06.714Z,19.05
2022-11-29T01:35:58.215Z,18.55
2022-11-29T01:36:49.703Z,19.27
2022-11-29T01:37:41.251Z,18.95
2022-11-29T01:38:33.328Z,18.63
2022-11-29T01:39:24.857Z,18.63
2022-11-29T01:40:16.400Z,18.08
2022-11-29T01:41:20.372Z,19.98
2022-11-29T01:42:13.193Z,19.70
2022-11-29T01:43:17.991Z,18.80
2022-11-29T01:44:12.103Z,16.92
2022-11-29T01:45:24.718Z,19.52
2022-11-29T01:46:16.229Z,18.98
2022-11-29T01:47:11.134Z,18.52
2022-11-29T01:48:02.784Z,17.77
2022-11-29T01:48:58.807Z,17.95
2022-11-29T01:49:50.417Z,19.63
2022-11-29T01:50:43.017Z,18.30
2022-11-29T01:51:37.407Z,17.58
2022-11-29T01:52:32.433Z,19.10
2022-11-29T01:53:24.002Z,19.15
2022-11-29T01:54:15.804Z,19.27
2022-11-29T01:55:09.054Z,19.23
2022-11-29T01:56:03.649Z,19.42
2022-11-29T01:56:55.368Z,18.77
2022-11-29T01:57:46.942Z,19.20
2022-11-29T01:58:38.428Z,20.60
2022-11-29T01:59:30.458Z,19.38
2022-11-29T02:00:22.147Z,19.63
2022-11-29T02:01:14.656Z,19.23
2022-11-29T02:02:12.090Z,19.65
2022-11-29T02:03:17.293Z,19.35
2022-11-29T02:04:09.171Z,19.52
2022-11-29T02:05:02.572Z,20.70
2022-11-29T02:05:55.111Z,19.40
2022-11-29T02:06:46.862Z,19.98
2022-11-29T02:07:38.481Z,20.02
2022-11-29T02:08:37.874Z,19.67
2022-11-29T02:09:29.383Z,20.40
2022-11-29T02:10:30.308Z,19.27
2022-11-29T02:11:24.518Z,19.95
2022-11-29T02:12:27.468Z,21.75
2022-11-29T02:13:42.591Z,20.08
2022-11-29T02:14:47.368Z,20.83
2022-11-29T02:15:44.628Z,19.88
2022-11-29T02:16:56.257Z,19.67
2022-11-29T02:17:50.758Z,20.48
2022-11-29T02:19:21.120Z,20.80
2022-11-29T02:20:39.822Z,19.58
2022-11-29T02:22:02.605Z,18.67
2022-11-29T02:23:10.624Z,19.55
2022-11-29T02:24:38.652Z,19.00
2022-11-29T02:26:03.641Z,20.35
2022-11-29T02:27:07.310Z,19.58
2022-11-29T02:28:10.569Z,19.27
2022-11-29T02:29:39.673Z,20.77
2022-11-29T02:32:25.227Z,19.83
2022-11-29T02:33:50.363Z,17.17
2022-11-29T02:35:01.663Z,20.45
2022-11-29T02:36:18.951Z,20.45
2022-11-29T02:37:19.330Z,19.52
2022-11-29T02:38:35.131Z,20.10
2022-11-29T02:39:48.339Z,20.65
2022-11-29T02:40:57.860Z,21.52
2022-11-29T02:41:58.634Z,22.25
2022-11-29T02:43:16.415Z,22.10
2022-11-29T02:44:17.884Z,20.50
2022-11-29T02:45:18.947Z,20.23
2022-11-29T02:46:18.871Z,20.23
2022-11-29T02:47:12.945Z,21.30
2022-11-29T02:48:35.952Z,22.67
2022-11-29T02:49:36.058Z,20.73
2022-11-29T02:50:39.523Z,20.75
2022-11-29T02:51:49.509Z,20.90
2022-11-29T02:53:35.243Z,21.20
2022-11-29T02:54:37.524Z,18.35
2022-11-29T02:55:39.226Z,22.40
2022-11-29T02:56:57.435Z,20.27
2022-11-29T02:58:01.852Z,19.70
2022-11-29T02:59:15.865Z,20.90
2022-11-29T03:00:18.132Z,20.92
2022-11-29T03:01:30.473Z,20.98
2022-11-29T03:02:39.601Z,20.85
2022-11-29T03:03:42.644Z,20.85
2022-11-29T03:06:15.097Z,20.77
2022-11-29T03:07:21.269Z,21.42
2022-11-29T03:08:24.870Z,21.48
2022-11-29T03:09:32.070Z,20.48
2022-11-29T03:10:51.486Z,21.17
2022-11-29T03:11:58.575Z,21.10
2022-11-29T03:12:53.315Z,20.73
2022-11-29T03:14:23.542Z,20.70
2022-11-29T03:15:33.302Z,20.42
2022-11-29T03:16:37.102Z,20.17
2022-11-29T03:17:51.537Z,20.38
2022-11-29T03:19:04.183Z,19.92
2022-11-29T03:20:07.613Z,20.20
2022-11-29T03:21:30.151Z,20.80
2022-11-29T03:22:33.750Z,20.73
2022-11-29T03:23:31.620Z,20.27
2022-11-29T03:24:35.649Z,20.67
2022-11-29T03:25:48.135Z,20.58
2022-11-29T03:26:44.452Z,20.73
2022-11-29T03:28:02.036Z,21.42
2022-11-29T03:29:11.865Z,20.98
2022-11-29T03:30:10.046Z,20.63
2022-11-29T03:31:10.900Z,20.58
2022-11-29T03:32:18.162Z,20.85
2022-11-29T03:33:15.651Z,21.33
2022-11-29T03:34:10.050Z,20.23
2022-11-29T03:35:18.678Z,21.10
2022-11-29T03:36:26.934Z,21.63
2022-11-29T03:37:25.999Z,20.35
2022-11-29T03:38:39.853Z,20.77
2022-11-29T03:39:56.326Z,20.70
2022-11-29T03:40:51.177Z,19.52
2022-11-29T03:42:14.030Z,20.65
2022-11-29T03:43:22.229Z,20.25
2022-11-29T03:44:18.874Z,21.00
2022-11-29T03:45:28.976Z,21.48
2022-11-29T03:46:29.172Z,21.73
2022-11-29T03:47:27.561Z,20.00
2022-11-29T03:48:27.367Z,21.02
2022-11-29T03:49:43.505Z,21.33
2022-11-29T03:50:44.079Z,20.95
2022-11-29T03:51:44.827Z,20.70
2022-11-29T03:52:56.508Z,22.67
2022-11-29T03:54:10.503Z,21.20
2022-11-29T03:55:11.931Z,21.40
2022-11-29T03:56:24.543Z,20.73
2022-11-29T03:57:24.951Z,20.33
2022-11-29T03:58:44.268Z,22.08
2022-11-29T04:00:49.211Z,20.35
2022-11-29T04:02:10.895Z,20.25
2022-11-29T04:03:21.115Z,20.60
2022-11-29T04:04:49.975Z,20.65
2022-11-29T04:06:11.114Z,21.15
2022-11-29T04:07:14.524Z,21.08
2022-11-29T04:08:17.943Z,21.52
2022-11-29T04:09:30.048Z,22.08
2022-11-29T04:10:52.285Z,21.52
2022-11-29T04:11:55.780Z,23.05
2022-11-29T04:13:11.377Z,21.33
2022-11-29T04:14:21.545Z,21.80
2022-11-29T04:15:18.923Z,23.15
2022-11-29T04:16:32.046Z,23.80
2022-11-29T04:17:51.386Z,23.15
2022-11-29T04:19:00.539Z,21.58
2022-11-29T04:20:29.339Z,23.25
2022-11-29T04:21:39.532Z,22.33
2022-11-29T04:22:33.762Z,22.58
2022-11-29T04:23:49.859Z,23.45
2022-11-29T04:25:03.713Z,23.50
2022-11-29T04:26:22.711Z,22.45
2022-11-29T04:27:36.021Z,22.00
2022-11-29T04:28:53.103Z,21.02
2022-11-29T04:29:54.474Z,22.88
2022-11-29T04:31:07.363Z,22.58
2022-11-29T04:32:36.490Z,21.70
2022-11-29T04:35:14.150Z,22.05
2022-11-29T04:36:43.262Z,23.05
2022-11-29T04:38:47.409Z,21.92
2022-11-29T04:40:02.725Z,22.63
2022-11-29T04:41:19.902Z,22.10
2022-11-29T04:42:37.485Z,22.88
2022-11-29T04:43:42.215Z,23.15
2022-11-29T04:44:48.813Z,23.27
2022-11-29T04:46:05.015Z,24.35
2022-11-29T04:47:30.438Z,24.23
2022-11-29T04:48:28.192Z,22.90
2022-11-29T04:49:22.186Z,23.13
2022-11-29T04:50:13.630Z,24.05
2022-11-29T04:51:42.243Z,24.23
2022-11-29T04:52:48.006Z,23.77
2022-11-29T04:53:51.020Z,23.65
2022-11-29T04:54:42.725Z,24.30
2022-11-29T04:56:07.830Z,24.45
2022-11-29T04:57:10.796Z,24.13
2022-11-29T04:58:41.084Z,25.80
2022-11-29T04:59:49.864Z,26.05
2022-11-29T05:00:59.605Z,23.65
2022-11-29T05:02:39.079Z,24.98
2022-11-29T05:03:55.414Z,24.88
2022-11-29T05:05:06.358Z,23.17
2022-11-29T05:07:14.386Z,23.08
2022-11-29T05:08:27.404Z,24.60
2022-11-29T05:09:35.873Z,23.48
2022-11-29T05:11:01.277Z,24.80
2022-11-29T05:12:06.833Z,23.52
2022-11-29T05:13:06.012Z,25.00
2022-11-29T05:14:31.257Z,23.95
2022-11-29T05:15:43.775Z,24.10
2022-11-29T05:17:06.163Z,24.40
2022-11-29T05:18:09.405Z,22.30
2022-11-29T05:19:28.400Z,23.70
2022-11-29T05:20:41.260Z,22.40
2022-11-29T05:22:06.886Z,23.02
2022-11-29T05:22:58.302Z,21.42
2022-11-29T05:24:42.485Z,23.50
2022-11-29T05:26:15.598Z,21.17
2022-11-29T05:27:31.486Z,22.48
2022-11-29T05:29:01.679Z,23.23
2022-11-29T05:29:55.913Z,21.90
2022-11-29T05:31:05.809Z,24.60
2022-11-29T05:32:07.724Z,24.42
2022-11-29T05:33:42.607Z,22.73
2022-11-29T05:35:02.991Z,24.42
2022-11-29T05:36:28.330Z,22.33
2022-11-29T05:37:29.648Z,23.73
2022-11-29T05:39:12.246Z,23.25
2022-11-29T05:40:28.474Z,23.17
2022-11-29T05:41:51.522Z,21.98
2022-11-29T05:43:01.822Z,22.63
2022-11-29T05:44:09.591Z,20.65
2022-11-29T05:45:08.849Z,23.95
2022-11-29T05:46:24.811Z,23.75
2022-11-29T05:47:39.748Z,22.35
2022-11-29T05:48:37.561Z,22.33
2022-11-29T05:49:52.246Z,23.38
2022-11-29T05:50:54.829Z,23.15
2022-11-29T05:52:15.074Z,22.65
2022-11-29T05:53:45.568Z,22.67
2022-11-29T05:54:50.678Z,23.25
2022-11-29T05:56:19.871Z,22.25
2022-11-29T05:58:36.125Z,21.38
2022-11-29T05:59:29.128Z,21.48
2022-11-29T06:00:20.964Z,21.58
2022-11-29T06:01:29.845Z,21.30
2022-11-29T06:02:27.034Z,22.27
2022-11-29T06:03:44.892Z,22.42
2022-11-29T06:04:57.569Z,23.67
2022-11-29T06:05:57.409Z,22.63
2022-11-29T06:07:14.806Z,21.40
2022-11-29T06:08:15.844Z,21.85
2022-11-29T06:09:27.562Z,22.25
2022-11-29T06:10:23.456Z,22.15
2022-11-29T06:11:44.424Z,22.92
2022-11-29T06:12:36.323Z,21.90
2022-11-29T06:13:45.362Z,21.45
2022-11-29T06:15:01.310Z,22.40
2022-11-29T06:16:04.798Z,21.88
2022-11-29T06:17:07.423Z,20.95
2022-11-29T06:18:17.252Z,22.52
2022-11-29T06:19:33.076Z,22.35
2022-11-29T06:20:43.474Z,21.67
2022-11-29T06:22:05.764Z,22.63
2022-11-29T06:23:16.335Z,21.23
2022-11-29T06:24:36.063Z,20.63
2022-11-29T06:25:40.857Z,21.63
2022-11-29T06:26:58.190Z,21.83
2022-11-29T06:28:24.187Z,21.38
2022-11-29T06:29:40.165Z,21.30
2022-11-29T06:30:52.197Z,21.90
2022-11-29T06:31:48.122Z,21.92
2022-11-29T06:33:12.683Z,21.73
2022-11-29T06:34:33.952Z,19.70
2022-11-29T06:35:38.000Z,22.02
2022-11-29T06:36:39.746Z,22.20
2022-11-29T06:37:40.097Z,21.08
2022-11-29T06:38:31.727Z,23.38
2022-11-29T06:39:23.519Z,21.98
2022-11-29T06:40:16.462Z,23.38
2022-11-29T06:41:14.093Z,21.65
2022-11-29T06:42:05.631Z,21.65
2022-11-29T06:42:57.119Z,20.83
2022-11-29T06:43:49.107Z,22.30
2022-11-29T06:44:40.964Z,22.58
2022-11-29T06:45:32.817Z,22.35
2022-11-29T06:46:47.079Z,22.67
2022-11-29T06:47:51.033Z,23.00
2022-11-29T06:48:53.136Z,22.60
2022-11-29T06:49:51.016Z,22.95
2022-11-29T06:51:07.199Z,21.80
2022-11-29T06:52:07.884Z,21.35
2022-11-29T06:53:22.354Z,22.27
2022-11-29T06:54:26.133Z,22.88
2022-11-29T06:55:32.641Z,21.73
2022-11-29T06:56:30.113Z,21.52
2022-11-29T06:57:42.118Z,22.40
2022-11-29T06:58:50.031Z,20.23
2022-11-29T07:00:11.629Z,21.15
2022-11-29T07:01:12.810Z,22.15
2022-11-29T07:02:38.213Z,21.80
2022-11-29T07:03:43.096Z,20.67
2022-11-29T07:05:19.272Z,22.67
2022-11-29T07:06:22.016Z,20.80
2022-11-29T07:07:18.554Z,21.77
2022-11-29T07:08:19.819Z,21.35
2022-11-29T07:09:15.972Z,21.95
2022-11-29T07:10:15.220Z,23.02
2022-11-29T07:11:07.137Z,22.70
2022-11-29T07:11:58.906Z,23.65
2022-11-29T07:12:51.377Z,21.52
2022-11-29T07:13:43.147Z,23.83
2022-11-29T07:14:35.678Z,23.15
2022-11-29T07:15:28.161Z,23.40
2022-11-29T07:16:36.989Z,23.15
2022-11-29T07:17:42.810Z,22.38
2022-11-29T07:18:41.242Z,21.75
2022-11-29T07:19:55.691Z,23.20
2022-11-29T07:21:08.071Z,22.40
2022-11-29T07:22:10.758Z,20.45
2022-11-29T07:23:35.901Z,22.38
2022-11-29T07:25:05.930Z,22.15
2022-11-29T07:26:21.795Z,21.13
2022-11-29T07:27:27.793Z,21.15
2022-11-29T07:28:30.995Z,22.95
2022-11-29T07:29:28.369Z,21.70
2022-11-29T07:30:28.200Z,22.67
2022-11-29T07:31:22.586Z,23.05
2022-11-29T07:32:30.694Z,22.38
2022-11-29T07:33:52.222Z,22.23
2022-11-29T07:34:58.768Z,22.55
2022-11-29T07:36:16.487Z,22.17
2022-11-29T07:37:19.976Z,21.58
2022-11-29T07:38:26.816Z,22.98
2022-11-29T07:39:43.983Z,22.15
2022-11-29T07:40:58.782Z,22.95
2022-11-29T07:42:06.189Z,23.73
2022-11-29T07:43:03.521Z,24.10
2022-11-29T07:44:24.429Z,22.40
2022-11-29T07:45:29.150Z,23.13
2022-11-29T07:46:20.660Z,21.55
2022-11-29T07:47:12.934Z,23.95
2022-11-29T07:48:05.117Z,25.52
2022-11-29T07:48:56.660Z,24.08
2022-11-29T07:49:48.149Z,23.73
2022-11-29T07:50:40.825Z,24.30
2022-11-29T07:51:32.321Z,23.92
2022-11-29T07:52:23.848Z,24.20
2022-11-29T07:53:20.620Z,24.05
2022-11-29T07:54:17.400Z,23.70
2022-11-29T07:55:20.180Z,23.35
2022-11-29T07:56:12.547Z,24.15
2022-11-29T07:57:04.017Z,23.85
2022-11-29T07:57:56.675Z,25.08
2022-11-29T07:58:48.206Z,26.20
2022-11-29T07:59:39.707Z,25.30
2022-11-29T08:00:31.179Z,23.80
2022-11-29T08:01:22.696Z,24.33
2022-11-29T08:02:14.227Z,24.67
2022-11-29T08:03:06.067Z,24.88
2022-11-29T08:03:57.596Z,24.88
2022-11-29T08:04:49.190Z,24.08
2022-11-29T08:05:45.871Z,24.77
2022-11-29T08:06:37.764Z,24.33
2022-11-29T08:07:29.912Z,25.42
2022-11-29T08:08:21.586Z,24.48
2022-11-29T08:09:13.130Z,26.08
2022-11-29T08:10:11.647Z,24.02
2022-11-29T08:11:11.866Z,24.10
2022-11-29T08:12:03.660Z,25.17
2022-11-29T08:12:55.407Z,23.98
2022-11-29T08:13:46.898Z,22.83
2022-11-29T08:14:38.432Z,24.50
2022-11-29T08:15:30.362Z,24.05
2022-11-29T08:16:21.881Z,22.77
2022-11-29T08:17:13.365Z,23.63
2022-11-29T08:18:04.917Z,24.27
2022-11-29T08:18:56.507Z,22.90
2022-11-29T08:19:48.003Z,23.40
2022-11-29T08:20:41.607Z,23.08
2022-11-29T08:21:33.098Z,24.58
2022-11-29T08:22:24.593Z,24.58
2022-11-29T08:23:16.086Z,23.00
2022-11-29T08:24:07.642Z,23.63
2022-11-29T08:24:59.907Z,23.30
2022-11-29T08:25:58.256Z,24.58
2022-11-29T08:26:50.011Z,23.02
2022-11-29T08:27:41.543Z,23.80
2022-11-29T08:28:33.045Z,23.10
2022-11-29T08:29:25.188Z,23.15
2022-11-29T08:30:18.711Z,22.85
2022-11-29T08:31:12.797Z,22.77
2022-11-29T08:32:04.556Z,23.45
2022-11-29T08:32:56.062Z,22.80
2022-11-29T08:33:47.967Z,23.83
2022-11-29T08:34:39.518Z,23.67
2022-11-29T08:35:31.209Z,23.77
2022-11-29T08:36:22.775Z,22.67
2022-11-29T08:37:14.285Z,23.17
2022-11-29T08:38:05.771Z,23.38
2022-11-29T08:39:03.514Z,23.30
2022-11-29T08:39:59.150Z,22.80
2022-11-29T08:40:50.637Z,23.25
2022-11-29T08:41:42.532Z,23.25
2022-11-29T08:42:34.009Z,23.98
2022-11-29T08:43:25.495Z,23.73
2022-11-29T08:44:17.020Z,22.70
2022-11-29T08:45:09.731Z,22.63
2022-11-29T08:46:01.510Z,23.88
2022-11-29T08:47:11.471Z,23.67
2022-11-29T08:48:02.948Z,23.38
2022-11-29T08:48:54.637Z,23.35
2022-11-29T08:50:01.189Z,22.60
2022-11-29T08:50:54.403Z,23.73
2022-11-29T08:51:45.878Z,22.55
2022-11-29T08:52:57.656Z,23.40
2022-11-29T08:53:51.602Z,22.45
2022-11-29T08:54:43.503Z,21.95
2022-11-29T08:55:39.811Z,21.02
2022-11-29T08:57:16.480Z,22.48
2022-11-29T08:57:42.816Z,22.67
2022-11-29T08:58:34.312Z,22.88
2022-11-29T08:59:25.801Z,21.20
2022-11-29T09:00:18.335Z,22.30
2022-11-29T09:01:15.044Z,22.60
2022-11-29T09:02:06.826Z,21.77
2022-11-29T09:03:18.878Z,22.17
2022-11-29T09:04:10.916Z,22.02
2022-11-29T09:05:02.649Z,22.15
2022-11-29T09:05:50.281Z,22.38
2022-11-29T09:06:45.559Z,21.65
2022-11-29T09:07:37.744Z,21.35
2022-11-29T09:08:29.327Z,21.42
2022-11-29T09:09:20.856Z,23.50
2022-11-29T09:10:12.743Z,20.65
2022-11-29T09:11:15.175Z,20.80
2022-11-29T09:12:08.570Z,21.27
2022-11-29T09:13:00.054Z,20.02
2022-11-29T09:13:53.771Z,19.80
2022-11-29T09:14:45.715Z,20.08
2022-11-29T09:15:38.770Z,19.63
2022-11-29T09:16:35.933Z,19.13
2022-11-29T09:17:27.581Z,17.98
2022-11-29T09:18:19.068Z,18.40
2022-11-29T09:19:10.643Z,17.60
2022-11-29T09:20:02.185Z,18.02
2022-11-29T09:20:53.755Z,19.10
2022-11-29T09:21:45.230Z,17.77
2022-11-29T09:22:36.725Z,17.27
2022-11-29T09:23:28.424Z,18.20
2022-11-29T09:24:20.619Z,17.50
2022-11-29T09:25:12.119Z,16.83
2022-11-29T09:26:04.825Z,17.85
2022-11-29T09:26:56.302Z,16.90
2022-11-29T09:27:47.779Z,18.10
2022-11-29T09:28:39.307Z,17.52
2022-11-29T09:29:30.775Z,17.40
2022-11-29T09:30:23.838Z,17.10
2022-11-29T09:31:16.862Z,16.63
2022-11-29T09:32:08.532Z,16.48
2022-11-29T09:33:02.685Z,15.82
2022-11-29T09:33:55.136Z,16.73
2022-11-29T09:34:47.028Z,16.10
2022-11-29T09:35:38.799Z,16.00
2022-11-29T09:36:30.857Z,16.55
2022-11-29T09:37:22.332Z,15.88
2022-11-29T09:38:14.514Z,16.02
2022-11-29T09:39:06.362Z,15.18
2022-11-29T09:39:57.858Z,16.15
2022-11-29T09:41:03.071Z,15.35
2022-11-29T09:42:18.583Z,14.45
2022-11-29T09:43:27.867Z,14.95
2022-11-29T09:44:45.809Z,13.95
2022-11-29T09:45:43.030Z,14.57
2022-11-29T09:46:37.340Z,15.07
2022-11-29T09:48:01.117Z,14.40
2022-11-29T09:49:20.623Z,14.65
2022-11-29T09:50:34.560Z,14.27
2022-11-29T09:51:44.724Z,12.98
2022-11-29T09:53:07.051Z,14.30
2022-11-29T09:54:05.644Z,12.90
2022-11-29T09:55:05.132Z,14.07
2022-11-29T09:56:25.696Z,14.65
2022-11-29T09:57:19.180Z,13.73
2022-11-29T09:58:15.280Z,13.90
2022-11-29T09:59:12.115Z,14.40
2022-11-29T10:00:07.261Z,13.60
2022-11-29T10:01:09.262Z,13.90
2022-11-29T10:02:20.920Z,14.32
2022-11-29T10:03:23.208Z,13.85
2022-11-29T10:04:18.997Z,12.77
2022-11-29T10:05:19.528Z,14.02
2022-11-29T10:06:24.186Z,13.80
2022-11-29T10:07:27.994Z,13.77
2022-11-29T10:08:52.568Z,13.65
2022-11-29T10:10:08.555Z,14.32
2022-11-29T10:11:32.597Z,13.73
2022-11-29T10:12:39.433Z,14.10
2022-11-29T10:13:36.002Z,12.82
2022-11-29T10:14:35.281Z,13.43
2022-11-29T10:15:29.560Z,13.73
2022-11-29T10:16:45.505Z,13.00
2022-11-29T10:17:42.787Z,13.48
2022-11-29T10:19:03.286Z,13.60
2022-11-29T10:20:04.496Z,13.65
2022-11-29T10:20:58.605Z,13.23
2022-11-29T10:22:00.728Z,14.32
2022-11-29T10:23:04.620Z,13.43
2022-11-29T10:24:04.575Z,13.95
2022-11-29T10:25:01.381Z,13.55
2022-11-29T10:25:55.323Z,14.38
2022-11-29T10:26:46.906Z,14.48
2022-11-29T10:27:40.334Z,13.98
2022-11-29T10:28:33.495Z,13.93
2022-11-29T10:29:25.145Z,14.27
2022-11-29T10:30:17.055Z,13.52
2022-11-29T10:31:26.696Z,13.90
2022-11-29T10:32:21.199Z,13.82
2022-11-29T10:33:21.048Z,13.75
2022-11-29T10:34:21.883Z,14.52
2022-11-29T10:35:16.144Z,13.60
2022-11-29T10:36:22.121Z,14.00
2022-11-29T10:37:17.818Z,13.75
2022-11-29T10:39:39.479Z,13.55
2022-11-29T10:40:34.929Z,12.57
2022-11-29T10:41:26.989Z,12.43
2022-11-29T10:42:39.602Z,12.88
2022-11-29T10:43:31.466Z,14.18
2022-11-29T10:44:24.511Z,13.45
2022-11-29T10:45:24.587Z,13.82
2022-11-29T10:46:30.105Z,13.25
2022-11-29T10:47:21.685Z,13.02
2022-11-29T10:48:17.225Z,12.35
2022-11-29T10:49:17.554Z,13.20
2022-11-29T10:50:21.274Z,13.27
2022-11-29T10:51:17.296Z,13.27
2022-11-29T10:52:19.425Z,14.07
2022-11-29T10:53:14.807Z,13.45
2022-11-29T10:54:41.554Z,14.30
2022-11-29T10:55:43.216Z,13.05
2022-11-29T10:56:37.660Z,13.45
2022-11-29T10:57:29.141Z,12.93
2022-11-29T10:58:28.254Z,13.25
2022-11-29T10:59:30.604Z,13.48
2022-11-29T11:00:22.198Z,13.43
2022-11-29T11:01:15.527Z,13.70
2022-11-29T11:02:19.103Z,13.77
2022-11-29T11:03:17.077Z,14.18
2022-11-29T11:04:15.449Z,13.43
2022-11-29T11:05:19.412Z,13.40
2022-11-29T11:06:17.450Z,13.68
2022-11-29T11:07:23.577Z,13.90
2022-11-29T11:08:18.296Z,13.05
2022-11-29T11:09:29.742Z,13.57
2022-11-29T11:10:27.106Z,12.77
2022-11-29T11:11:28.209Z,13.93
2022-11-29T11:12:25.930Z,13.75
2022-11-29T11:13:29.170Z,12.52
2022-11-29T11:14:29.440Z,13.05
2022-11-29T11:15:29.781Z,13.02
2022-11-29T11:16:24.790Z,13.82
2022-11-29T11:17:34.155Z,13.63
2022-11-29T11:19:30.082Z,12.75
2022-11-29T11:20:24.295Z,13.73
2022-11-29T11:21:20.008Z,13.57
2022-11-29T11:22:21.982Z,12.98
2022-11-29T11:23:31.312Z,13.65
2022-11-29T11:25:30.250Z,12.60
2022-11-29T11:26:22.936Z,13.05
2022-11-29T11:27:32.630Z,12.60
2022-11-29T11:28:28.214Z,13.77
2022-11-29T11:29:23.638Z,13.18
2022-11-29T11:30:27.508Z,14.40
2022-11-29T11:31:32.755Z,14.38
2022-11-29T11:32:24.258Z,14.65
2022-11-29T11:33:30.223Z,15.40
2022-11-29T11:34:29.142Z,14.20
2022-11-29T11:35:24.270Z,14.00
2022-11-29T11:36:27.332Z,14.15
2022-11-29T11:37:29.854Z,14.90
2022-11-29T11:38:21.331Z,14.20
2022-11-29T11:39:19.120Z,13.90
2022-11-29T11:40:27.119Z,13.85
2022-11-29T11:41:21.546Z,13.90
2022-11-29T11:42:34.674Z,13.70
2022-11-29T11:43:26.233Z,13.52
2022-11-29T11:44:49.777Z,14.45
2022-11-29T11:45:41.396Z,13.77
2022-11-29T11:46:52.044Z,13.25
2022-11-29T11:47:55.382Z,13.15
2022-11-29T11:48:47.299Z,14.48
2022-11-29T11:49:53.893Z,12.85
2022-11-29T11:50:54.384Z,13.73
2022-11-29T11:51:45.886Z,14.30
2022-11-29T11:52:42.009Z,14.10
2022-11-29T11:53:38.485Z,14.07
2022-11-29T11:54:31.097Z,13.18
2022-11-29T11:55:23.160Z,14.07
2022-11-29T11:56:14.858Z,13.30
2022-11-29T11:57:17.171Z,13.32
2022-11-29T11:58:18.921Z,14.15
2022-11-29T11:59:19.960Z,13.63
2022-11-29T12:01:02.356Z,13.52
2022-11-29T12:01:49.014Z,13.25
2022-11-29T12:02:40.960Z,13.10
2022-11-29T12:03:35.462Z,14.30
2022-11-29T12:04:34.748Z,13.40
2022-11-29T12:05:26.275Z,13.05
2022-11-29T12:06:29.887Z,13.25
2022-11-29T12:08:06.270Z,13.32
2022-11-29T12:08:49.332Z,13.52
2022-11-29T12:09:46.878Z,12.80
2022-11-29T12:10:40.358Z,12.88
2022-11-29T12:11:41.205Z,13.68
2022-11-29T12:12:38.922Z,13.23
2022-11-29T12:13:33.846Z,12.73
2022-11-29T12:14:28.376Z,13.32
2022-11-29T12:15:36.141Z,12.55
2022-11-29T12:16:37.617Z,13.32
2022-11-29T12:17:34.983Z,12.95
2022-11-29T12:19:24.912Z,13.68
2022-11-29T12:20:33.877Z,11.90
2022-11-29T12:21:31.637Z,12.55
2022-11-29T12:22:30.669Z,13.02
2022-11-29T12:23:32.954Z,13.68
2022-11-29T12:24:39.006Z,13.52
2022-11-29T12:25:38.145Z,13.10
2022-11-29T12:26:58.528Z,14.18
2022-11-29T12:27:51.566Z,13.55
2022-11-29T12:28:44.920Z,15.93
2022-11-29T12:29:36.491Z,16.27
2022-11-29T12:30:28.257Z,15.40
2022-11-29T12:31:34.687Z,14.98
2022-11-29T12:32:48.847Z,15.77
2022-11-29T12:33:51.418Z,15.10
2022-11-29T12:35:08.718Z,13.80
2022-11-29T12:36:30.416Z,13.93
2022-11-29T12:37:39.159Z,13.93
2022-11-29T12:38:33.256Z,13.38
2022-11-29T12:39:37.071Z,13.88
2022-11-29T12:41:06.913Z,14.18
2022-11-29T12:42:26.083Z,13.65
2022-11-29T12:43:36.186Z,12.93
2022-11-29T12:44:30.686Z,13.23
2022-11-29T12:45:30.465Z,14.00
2022-11-29T12:46:27.491Z,14.13
2022-11-29T12:47:52.293Z,14.95
2022-11-29T12:49:04.195Z,13.45
2022-11-29T12:50:23.929Z,14.20
2022-11-29T12:51:49.374Z,14.68
2022-11-29T12:53:25.482Z,14.18
2022-11-29T12:54:29.072Z,13.43
2022-11-29T12:55:30.106Z,14.32
2022-11-29T12:56:30.360Z,14.18
2022-11-29T12:57:50.124Z,15.00
2022-11-29T12:58:59.927Z,15.73
2022-11-29T13:00:17.724Z,14.70
2022-11-29T13:01:27.895Z,14.63
2022-11-29T13:02:58.061Z,15.25
2022-11-29T13:04:27.001Z,14.68
2022-11-29T13:05:27.189Z,14.00
2022-11-29T13:06:32.425Z,14.15
2022-11-29T13:07:54.685Z,15.02
2022-11-29T13:08:51.139Z,14.60
2022-11-29T13:10:18.077Z,15.30
2022-11-29T13:11:48.457Z,14.52
2022-11-29T13:12:42.884Z,14.68
2022-11-29T13:13:42.605Z,15.45
2022-11-29T13:15:14.496Z,15.10
2022-11-29T13:16:25.101Z,13.27
2022-11-29T13:17:39.885Z,14.43
2022-11-29T13:18:57.519Z,14.02
2022-11-29T13:19:57.349Z,14.13
2022-11-29T13:20:51.764Z,14.38
2022-11-29T13:22:01.356Z,14.60
2022-11-29T13:24:16.800Z,12.90
2022-11-29T13:25:18.570Z,14.10
2022-11-29T13:26:12.438Z,13.80
2022-11-29T13:27:06.117Z,14.20
2022-11-29T13:28:02.505Z,14.05
2022-11-29T13:28:54.417Z,13.82
2022-11-29T13:29:46.613Z,13.73